Kenora Airport
CYQK : rendu visible

Aérodrome :











RETROUVEZ-NOUS SUR...

 
LOGIN :

S'inscrire | Disclaimer

   EN    FR    IT 

 









Légende :    VFR   VFR Marginal   IFR   IFR Intensif   IFR Très Intensif
Visi : 
Plafond : 
>= 8 km
>= 3000ft
5 à 8 km
1000 à 3000 ft
1500m à 5 km
500 à 1000 ft
800 à 1500m
200 à 500 ft
< 800m
< 200 ft
Symboles :   Orages  Brouillard  Fortes neiges  Fortes précipitations  Vent > 20 kt






- Altitude de l'aérodrome : 1332 ft
- Code IATA : YQK


CYQK - Kenora

DERNIER METAR :
  • 121900Z 16014G19KT 20SM DRSN FEW140 SCT240 M11/M19 A3006 RMK AC1CI2 SLP219

METARs EXPIRÉS :
  • 121800Z 17010G19KT 20SM DRSN SCT150 SCT240 M12/M18 A3010 RMK AC3CI1 PRESFR SLP235
  • 121700Z CCA 19011G18KT 20SM DRSN FEW015 SCT170 BKN210 M13/M17 A3016 RMK SC1AC4CI1 SC TR SLP254

TAF TAF CYQK
Valide du 12 à 14h jusqu'au 13 à 02h UTC


121338Z 1214/1302 19010KT 5SM -SN FEW008 BKN015
TEMPO 1214/1216 P6SM NSW SCT015
BECMG 1214/1216 17012G22KT
FM121600 17012G22KT P6SM FEW030 RMK NXT FCST BY 122000Z



MET'MAP, la Météo Aéronautique d'un coup d'oeil ! - Copyright ORBIFLY Décembre 2007 - Disclaimer

ORBIFLY MET'MAP TEAM :

Programmation & Développement : Alexandra Zaïnal
Conception & Développement : Baudouin d'Aumeries
Co-Programmation & Développement : Marc-Olivier Méhu
Soutien technique & logistique : Manuel Goepfert

Contact : metmap@orbifly.com




SOURCES & CREDITS :

   NOAA       Earth
Advisory